WEATHER DATA

YESTERDAY
Time Temp. Dewp. Hum. Wind dir Wind speed Wind gust Bar. 1h Prec. 24h Prec.
00:02 2 -3.6 64 232 0.3 0.6 1029.9 0.0000 0.0000
00:13 2 -3.4 65 0 0.3 1030.2 0.0000 0.0000
00:23 2.1 -3.4 65 0 0.3 1030.2 0.0000 0.0000
00:33 2.1 -3.4 65 270 0.3 0.6 1030.2 0.0000 0.0000
00:43 2 -3.4 65 0 0.3 1030.3 0.0000 0.0000
00:53 2 -3.3 66 0 0.3 1030.4 0.0000 0.0000
01:03 1.9 -3.2 67 270 0.3 0.3 1030.6 0.0000 0.0000
01:13 1.8 -3.2 67 0 0.6 1030.7 0.0000 0.0000
01:23 1.8 -3.1 68 186 0.3 0.6 1030.9 0.0000 0.0000
01:34 1.7 -3.2 68 171 0.3 0.6 1031.1 0.0000 0.0000
01:44 1.7 -3 69 225 0.3 0.6 1031 0.0000 0.0000
01:53 1.8 -2.7 70 234 0.3 0.6 1031.2 0.0000 0.0000
02:04 1.8 -2.7 70 90 0.3 0.6 1031.1 0.0000 0.0000
02:14 1.9 -2.6 70 154 0.3 0.8 1031.3 0.0000 0.0000
02:24 1.9 -2.5 71 180 0.3 0.6 1031.2 0.0000 0.0000
02:34 1.9 -2.5 71 270 0.3 0.6 1031.2 0.0000 0.0000
02:45 2 -2.2 72 90 0.3 0.6 1031.3 0.0000 0.0000
02:55 2 -2.2 72 90 0.3 0.6 1031.3 0.0000 0.0000
03:04 2 -2.1 73 127 0.3 0.6 1031.3 0.0000 0.0000
03:15 2 -1.9 74 90 0.3 0.6 1031.3 0.0000 0.0000
03:25 2 -1.9 74 161 0.3 0.6 1031.5 0.0000 0.0000
03:35 1.9 -2.1 73 90 0.3 0.6 1031.7 0.0000 0.0000
03:45 1.9 -2 74 90 0.3 0.6 1031.7 0.0000 0.0000
03:56 1.9 -1.8 75 0 0.6 1031.7 0.0000 0.0000
04:06 1.9 -1.8 75 0 0.3 1031.7 0.0000 0.0000
04:15 2 -1.7 75 90 0.3 0.6 1031.8 0.0000 0.0000
04:25 2 -1.7 75 135 0.3 0.6 1031.8 0.0000 0.0000
04:36 2 -1.7 75 0 0.3 1031.9 0.0000 0.0000
04:46 2 -1.7 75 0 0.3 1032 0.0000 0.0000
04:56 2 -1.7 75 90 0.3 0.6 1032 0.0000 0.0000
05:06 1.9 -1.8 75 150 0.3 0.6 1032 0.0000 0.0000
05:16 1.8 -1.9 75 225 0.3 0.6 1032.1 0.0000 0.0000
05:26 1.6 -1.9 76 0 0.3 1032.3 0.0000 0.0000
05:36 1.6 -1.8 77 135 0.3 0.6 1032.4 0.0000 0.0000
05:47 1.6 -1.8 77 90 0.3 0.6 1032.7 0.0000 0.0000
05:57 1.6 -1.6 78 90 0.3 0.6 1032.7 0.0000 0.0000
06:07 1.7 -1.4 79 45 0.3 0.8 1032.8 0.0000 0.0000
06:17 1.8 -1.3 79 90 0.3 0.8 1032.8 0.0000 0.0000
06:27 1.9 -1.2 79 90 0.6 0.8 1032.8 0.0000 0.0000
06:37 2 -1.1 79 153 0.3 0.3 1033.1 0.0000 0.0000
06:47 2 -1 80 45 0.3 0.6 1033.1 0.0000 0.0000
06:58 2.1 -0.9 80 0 0.3 1033.1 0.0000 0.0000
07:08 2.3 -0.7 80 0 0.3 1033.3 0.0000 0.0000
07:17 2.5 -0.4 81 315 0.3 0.3 1033.3 0.0000 0.0000
07:27 2.7 -0.2 81 341 0.3 0.3 1033.4 0.0000 0.0000
07:38 3 0.2 82 45 0.3 0.6 1033.5 0.0000 0.0000
07:48 3.3 0.5 82 270 0.3 0.6 1033.6 0.0000 0.0000
07:58 3.7 0.9 82 270 0.3 0.6 1033.7 0.0000 0.0000
08:08 4.1 1.5 83 270 0.6 1.7 1033.8 0.0000 0.0000
08:18 4.6 2.1 84 270 1.4 2.2 1033.8 0.0000 0.0000
10:15 9.2 5 75 270 2.2 3.9 1034.5 0.0000 0.0000
10:24 9.4 5 74 270 2.2 3.9 1034.6 0.0000 0.0000
10:35 9.5 5.1 74 274 2.2 4.2 1034.4 0.0000 0.0000
10:45 9.7 5.3 74 257 1.9 3.9 1034.4 0.0000 0.0000
10:55 10 5.4 73 270 2.2 4.2 1034.4 0.0000 0.0000
11:05 10 5.2 72 270 2.5 4.4 1034.6 0.0000 0.0000
11:15 10.2 5.4 72 270 2.5 4.4 1034.6 0.0000 0.0000
11:25 10.4 5.4 71 270 1.7 3.6 1034.5 0.0000 0.0000
11:35 10.8 5.8 71 253 1.9 3.6 1034.5 0.0000 0.0000
11:45 11.1 5.8 70 265 2.2 5 1034.6 0.0000 0.0000
11:56 11.4 6.1 70 266 2.2 4.7 1034.4 0.0000 0.0000
12:06 11.6 6.1 69 270 2.2 4.4 1034.4 0.0000 0.0000
12:16 11.6 5.9 68 270 2.5 4.4 1034.4 0.0000 0.0000
12:26 11.8 6.1 68 255 1.9 3.3 1034.3 0.0000 0.0000
12:36 12 5.9 66 267 2.8 4.7 1034.3 0.0000 0.0000
12:46 12.2 6 66 266 2.8 5 1034.2 0.0000 0.0000
12:56 12.7 6.3 65 261 2.8 4.7 1034.2 0.0000 0.0000
13:07 13.1 6.5 64 266 2.2 4.4 1034.3 0.0000 0.0000
13:16 13.5 6.6 63 270 2.5 4.7 1034.2 0.0000 0.0000
13:26 13.4 6 61 270 2.5 3.9 1034.1 0.0000 0.0000
13:37 13.5 6.1 61 270 1.9 4.2 1034.4 0.0000 0.0000
13:47 13.3 5.7 60 280 1.4 4.2 1034.2 0.0000 0.0000
13:57 12.8 5.7 62 270 1.9 4.2 1034.3 0.0000 0.0000
14:07 12.6 5.8 63 276 1.7 3.6 1034.5 0.0000 0.0000
14:17 12.5 5.7 63 270 0.8 2.2 1034.3 0.0000 0.0000
14:27 12.5 5.9 64 270 1.7 2.5 1034.2 0.0000 0.0000
14:37 12.7 5.6 62 270 2.2 4.2 1034.2 0.0000 0.0000
14:47 13.1 6 62 262 1.9 3.3 1034.4 0.0000 0.0000
14:58 13.4 6.3 62 270 0.8 2.5 1034.3 0.0000 0.0000
15:08 13.4 6 61 270 1.7 2.5 1034.1 0.0000 0.0000
15:17 13.6 6 60 270 1.9 4.4 1034.1 0.0000 0.0000
15:28 14.2 5.8 57 310 1.4 4.7 1034 0.0000 0.0000
15:38 13.6 5.3 57 270 2.2 3.9 1033.9 0.0000 0.0000
15:48 13.5 5.2 57 270 2.2 3.3 1033.8 0.0000 0.0000
15:58 13 5.7 61 340 2.8 6.4 1033.8 0.0000 0.0000
16:09 12.3 5.2 62 346 1.9 2.8 1033.7 0.0000 0.0000
16:18 12 5 62 4 0.8 2.5 1033.7 0.0000 0.0000
16:28 11.8 5 63 18 0.6 1.4 1033.5 0.0000 0.0000
16:39 11.7 4.9 63 33 0.3 0.8 1033.5 0.0000 0.0000
16:49 11.7 5.1 64 45 0.3 0.6 1033.4 0.0000 0.0000
16:59 11.8 5.2 64 90 0.3 0.6 1033.4 0.0000 0.0000
17:08 11.8 5.2 64 45 0.3 0.6 1033.3 0.0000 0.0000
17:19 11.8 5 63 21 0.3 0.6 1033.3 0.0000 0.0000
17:29 11.7 5.1 64 29 0.3 0.8 1033.3 0.0000 0.0000
17:39 11.7 5.3 65 60 0.3 0.8 1033.3 0.0000 0.0000
17:49 11.9 5.3 64 90 0.8 1.7 1033.2 0.0000 0.0000
18:00 11.9 5.3 64 90 0.6 1.9 1033.2 0.0000 0.0000
18:09 11.8 5.2 64 0 0.6 1033.1 0.0000 0.0000
18:19 11.8 5.2 64 90 0.6 1.7 1033.2 0.0000 0.0000
18:30 11.6 5.3 65 0 0.3 1033 0.0000 0.0000
18:40 11.5 5.4 66 270 0.3 0.6 1033 0.0000 0.0000
18:50 11.3 5.2 66 0 0.3 1033 0.0000 0.0000
19:20 10.5 4.9 68 315 0.3 0.8 1033 0.0000 0.0000
19:30 10.2 4.8 69 0 0.3 1033 0.0000 0.0000
19:46 9.5 4.3 70 0 0.6 1033.1 0.0000 0.0000
19:56 8.9 3.9 71 307 0.3 0.6 1033 0.0000 0.0000
20:06 8.5 4.1 74 270 0.3 0.6 1033 0.0000 0.0000
20:16 8.3 4.1 75 270 0.3 0.6 1033.1 0.0000 0.0000
20:26 7.9 3.7 75 270 0.3 0.6 1033.1 0.0000 0.0000
20:36 7.4 3.3 75 315 0.3 0.6 1033.1 0.0000 0.0000
20:46 7.1 3.3 77 270 0.3 0.6 1033.1 0.0000 0.0000
20:51 7 3.4 78 307 0.3 0.6 1033.1 0.0000 0.0000
21:03 6.7 3.1 78 0 0.6 1033.2 0.0000 0.0000
21:13 6.5 3.3 80 135 0.3 0.6 1033.2 0.0000 0.0000
21:23 6.4 3.4 81 180 0.3 0.6 1033.2 0.0000 0.0000
21:33 6.2 3.2 81 0 0.3 1033.2 0.0000 0.0000
21:44 6 3.2 82 270 0.3 0.6 1033.2 0.0000 0.0000
21:53 5.9 3.1 82 225 0.3 0.6 1033.1 0.0000 0.0000
22:03 5.7 3 83 225 0.3 0.6 1033.1 0.0000 0.0000
22:14 5.4 2.7 83 0 0.3 1033.1 0.0000 0.0000
22:24 5.3 2.8 84 0 0.6 1033 0.0000 0.0000
22:34 5.2 2.7 84 168 0.3 0.6 1033.2 0.0000 0.0000
22:43 5.1 2.8 85 164 0.3 0.6 1033.1 0.0000 0.0000
22:54 4.9 2.6 85 0 0.6 1033 0.0000 0.0000
23:04 4.8 2.7 86 216 0.3 0.6 1032.9 0.0000 0.0000
23:14 4.6 2.5 86 185 0.3 0.6 1033 0.0000 0.0000
23:24 4.4 2.3 86 161 0.3 0.6 1033 0.0000 0.0000
23:35 4.2 2.1 86 0 0.3 1032.9 0.0000 0.0000
23:44 4 1.9 86 351 0.3 0.6 1032.9 0.0000 0.0000
23:54 3.8 1.7 86 270 0.3 0.6 1033 0.0000

DAY STATISTIC

2020-04-05
TEMPERATURE
AVERAGE
7.0
HIGH
14.2
15:28
LOW
1.6
05:26
PRESSURE
AVERAGE
1033.0
HIGH
1034.6
10:24
LOW
1029.9
00:02
DEWPOINT
AVERAGE
2.2
HIGH
6.6
13:16
LOW
-3.6
00:02
HUMIDITY
AVERAGE
72
HIGH
86
23:04
LOW
57
15:28
WIND SPEED
AVERAGE
0.8
HIGH
2.8
12:36
WIND GUST
AVERAGE
1.6
HIGH
6.4
15:58
WIND DIRECTION
PREVAILING
W
36.2%
N
5.4
NE
6.2
E
12.3
SE
5.4
S
6.9
SW
5.4
W
36.2
NW
4.6
PRECIPITATION
RAIN HOUR
0.0
RAIN DAY
0.0
TEMPERATURE (°C)
LOW
1.6
HIGH
14.2
AVERAGE
7.0
PRESSURE (hpa)
LOW
1029.9
HIGH
1034.6
AVERAGE
1033.0
DEVICE